sensor_id;sensor_type;location;lat;lon;timestamp;P1;durP1;ratioP1;P2;durP2;ratioP2
81056;SDS011;70563;50.084;14.468;2023-08-20T00:01:14;8.45;;;6.47;;
81056;SDS011;70563;50.084;14.468;2023-08-20T00:03:44;7.80;;;6.88;;
81056;SDS011;70563;50.084;14.468;2023-08-20T00:06:11;12.60;;;7.05;;
81056;SDS011;70563;50.084;14.468;2023-08-20T00:08:36;9.52;;;7.43;;
81056;SDS011;70563;50.084;14.468;2023-08-20T00:11:02;9.07;;;6.93;;
81056;SDS011;70563;50.084;14.468;2023-08-20T00:13:28;8.82;;;7.55;;
81056;SDS011;70563;50.084;14.468;2023-08-20T00:15:53;7.43;;;6.72;;
81056;SDS011;70563;50.084;14.468;2023-08-20T00:18:19;9.00;;;7.18;;
81056;SDS011;70563;50.084;14.468;2023-08-20T00:20:44;9.60;;;7.70;;
81056;SDS011;70563;50.084;14.468;2023-08-20T00:23:10;8.23;;;7.20;;
81056;SDS011;70563;50.084;14.468;2023-08-20T00:25:36;8.93;;;6.75;;
81056;SDS011;70563;50.084;14.468;2023-08-20T00:28:02;9.48;;;7.05;;
81056;SDS011;70563;50.084;14.468;2023-08-20T00:30:27;9.23;;;6.43;;
81056;SDS011;70563;50.084;14.468;2023-08-20T00:32:53;8.02;;;7.22;;
81056;SDS011;70563;50.084;14.468;2023-08-20T00:35:18;9.93;;;6.95;;
81056;SDS011;70563;50.084;14.468;2023-08-20T00:37:43;9.32;;;7.55;;
81056;SDS011;70563;50.084;14.468;2023-08-20T00:40:09;7.80;;;6.97;;
81056;SDS011;70563;50.084;14.468;2023-08-20T00:42:36;9.57;;;7.28;;
81056;SDS011;70563;50.084;14.468;2023-08-20T00:45:02;9.05;;;6.88;;
81056;SDS011;70563;50.084;14.468;2023-08-20T00:47:29;8.30;;;7.47;;
81056;SDS011;70563;50.084;14.468;2023-08-20T00:49:54;10.02;;;7.53;;
81056;SDS011;70563;50.084;14.468;2023-08-20T00:52:20;8.38;;;6.65;;
81056;SDS011;70563;50.084;14.468;2023-08-20T00:54:45;8.63;;;7.10;;
81056;SDS011;70563;50.084;14.468;2023-08-20T00:57:17;9.30;;;7.38;;
81056;SDS011;70563;50.084;14.468;2023-08-20T00:59:44;7.93;;;6.72;;
81056;SDS011;70563;50.084;14.468;2023-08-20T01:02:12;10.13;;;7.72;;
81056;SDS011;70563;50.084;14.468;2023-08-20T01:04:38;7.78;;;6.70;;
81056;SDS011;70563;50.084;14.468;2023-08-20T01:10:34;10.25;;;7.00;;
81056;SDS011;70563;50.084;14.468;2023-08-20T01:13:28;7.72;;;6.82;;
81056;SDS011;70563;50.084;14.468;2023-08-20T01:15:54;8.30;;;7.43;;
81056;SDS011;70563;50.084;14.468;2023-08-20T01:18:19;10.90;;;7.85;;
81056;SDS011;70563;50.084;14.468;2023-08-20T01:20:51;10.15;;;7.63;;
81056;SDS011;70563;50.084;14.468;2023-08-20T01:23:45;10.55;;;7.85;;
81056;SDS011;70563;50.084;14.468;2023-08-20T01:26:31;10.10;;;8.20;;
81056;SDS011;70563;50.084;14.468;2023-08-20T01:29:12;8.65;;;7.22;;
81056;SDS011;70563;50.084;14.468;2023-08-20T01:31:38;10.77;;;7.55;;
81056;SDS011;70563;50.084;14.468;2023-08-20T01:34:05;8.57;;;7.22;;
81056;SDS011;70563;50.084;14.468;2023-08-20T01:36:31;8.25;;;7.18;;
81056;SDS011;70563;50.084;14.468;2023-08-20T01:38:56;8.38;;;7.32;;
81056;SDS011;70563;50.084;14.468;2023-08-20T01:41:21;8.60;;;7.32;;
81056;SDS011;70563;50.084;14.468;2023-08-20T01:43:47;8.10;;;7.28;;
81056;SDS011;70563;50.084;14.468;2023-08-20T01:46:12;8.73;;;7.72;;
81056;SDS011;70563;50.084;14.468;2023-08-20T01:48:37;10.57;;;7.95;;
81056;SDS011;70563;50.084;14.468;2023-08-20T01:51:03;10.98;;;8.07;;
81056;SDS011;70563;50.084;14.468;2023-08-20T01:53:28;23.42;;;9.48;;
81056;SDS011;70563;50.084;14.468;2023-08-20T01:55:54;9.82;;;7.57;;
81056;SDS011;70563;50.084;14.468;2023-08-20T01:58:19;9.63;;;8.23;;
81056;SDS011;70563;50.084;14.468;2023-08-20T02:00:45;10.73;;;8.10;;
81056;SDS011;70563;50.084;14.468;2023-08-20T02:03:10;10.20;;;9.05;;
81056;SDS011;70563;50.084;14.468;2023-08-20T02:05:36;10.68;;;8.38;;
81056;SDS011;70563;50.084;14.468;2023-08-20T02:08:01;8.48;;;7.57;;
81056;SDS011;70563;50.084;14.468;2023-08-20T02:10:27;10.65;;;9.15;;
81056;SDS011;70563;50.084;14.468;2023-08-20T02:12:52;12.75;;;8.45;;
81056;SDS011;70563;50.084;14.468;2023-08-20T02:15:18;9.77;;;8.45;;
81056;SDS011;70563;50.084;14.468;2023-08-20T02:17:43;9.55;;;8.65;;
81056;SDS011;70563;50.084;14.468;2023-08-20T02:20:08;11.02;;;8.57;;
81056;SDS011;70563;50.084;14.468;2023-08-20T02:22:35;10.52;;;8.60;;
81056;SDS011;70563;50.084;14.468;2023-08-20T02:25:01;12.02;;;9.05;;
81056;SDS011;70563;50.084;14.468;2023-08-20T02:27:26;11.15;;;8.68;;
81056;SDS011;70563;50.084;14.468;2023-08-20T02:29:52;10.18;;;8.77;;
81056;SDS011;70563;50.084;14.468;2023-08-20T02:32:17;10.95;;;8.85;;
81056;SDS011;70563;50.084;14.468;2023-08-20T02:34:43;11.77;;;9.00;;
81056;SDS011;70563;50.084;14.468;2023-08-20T02:37:08;14.93;;;9.32;;
81056;SDS011;70563;50.084;14.468;2023-08-20T02:39:34;11.82;;;8.88;;
81056;SDS011;70563;50.084;14.468;2023-08-20T02:41:59;12.75;;;9.23;;
81056;SDS011;70563;50.084;14.468;2023-08-20T02:44:24;13.10;;;9.10;;
81056;SDS011;70563;50.084;14.468;2023-08-20T02:46:50;11.93;;;8.38;;
81056;SDS011;70563;50.084;14.468;2023-08-20T02:49:15;10.48;;;8.55;;
81056;SDS011;70563;50.084;14.468;2023-08-20T02:51:42;11.43;;;9.07;;
81056;SDS011;70563;50.084;14.468;2023-08-20T02:54:08;11.23;;;9.10;;
81056;SDS011;70563;50.084;14.468;2023-08-20T02:56:33;10.75;;;9.63;;
81056;SDS011;70563;50.084;14.468;2023-08-20T02:58:59;13.05;;;9.05;;
81056;SDS011;70563;50.084;14.468;2023-08-20T03:01:25;11.35;;;9.55;;
81056;SDS011;70563;50.084;14.468;2023-08-20T03:03:51;10.70;;;9.20;;
81056;SDS011;70563;50.084;14.468;2023-08-20T03:06:16;10.65;;;9.20;;
81056;SDS011;70563;50.084;14.468;2023-08-20T03:08:42;11.80;;;10.02;;
81056;SDS011;70563;50.084;14.468;2023-08-20T03:11:07;11.20;;;9.15;;
81056;SDS011;70563;50.084;14.468;2023-08-20T03:13:33;13.13;;;9.95;;
81056;SDS011;70563;50.084;14.468;2023-08-20T03:15:58;11.40;;;9.35;;
81056;SDS011;70563;50.084;14.468;2023-08-20T03:18:24;11.27;;;9.65;;
81056;SDS011;70563;50.084;14.468;2023-08-20T03:20:49;13.10;;;9.15;;
81056;SDS011;70563;50.084;14.468;2023-08-20T03:23:14;12.65;;;9.75;;
81056;SDS011;70563;50.084;14.468;2023-08-20T03:25:40;11.15;;;9.77;;
81056;SDS011;70563;50.084;14.468;2023-08-20T03:28:05;10.50;;;9.38;;
81056;SDS011;70563;50.084;14.468;2023-08-20T03:30:30;11.55;;;9.65;;
81056;SDS011;70563;50.084;14.468;2023-08-20T03:32:56;13.27;;;9.40;;
81056;SDS011;70563;50.084;14.468;2023-08-20T03:35:22;10.68;;;9.30;;
81056;SDS011;70563;50.084;14.468;2023-08-20T03:37:48;10.55;;;8.98;;
81056;SDS011;70563;50.084;14.468;2023-08-20T03:40:13;13.77;;;9.98;;
81056;SDS011;70563;50.084;14.468;2023-08-20T03:42:39;16.05;;;9.93;;
81056;SDS011;70563;50.084;14.468;2023-08-20T03:45:05;12.02;;;9.68;;
81056;SDS011;70563;50.084;14.468;2023-08-20T03:47:30;14.13;;;9.55;;
81056;SDS011;70563;50.084;14.468;2023-08-20T03:49:56;13.30;;;9.23;;
81056;SDS011;70563;50.084;14.468;2023-08-20T03:52:21;13.77;;;9.68;;
81056;SDS011;70563;50.084;14.468;2023-08-20T03:54:46;13.18;;;9.65;;
81056;SDS011;70563;50.084;14.468;2023-08-20T03:57:12;10.70;;;9.57;;
81056;SDS011;70563;50.084;14.468;2023-08-20T03:59:37;12.60;;;9.98;;
81056;SDS011;70563;50.084;14.468;2023-08-20T04:02:03;12.32;;;11.00;;
81056;SDS011;70563;50.084;14.468;2023-08-20T04:04:28;12.13;;;10.13;;
81056;SDS011;70563;50.084;14.468;2023-08-20T04:06:53;10.48;;;9.38;;
81056;SDS011;70563;50.084;14.468;2023-08-20T04:09:19;12.27;;;9.95;;
81056;SDS011;70563;50.084;14.468;2023-08-20T04:11:44;14.02;;;10.35;;
81056;SDS011;70563;50.084;14.468;2023-08-20T04:14:09;11.00;;;9.00;;
81056;SDS011;70563;50.084;14.468;2023-08-20T04:16:35;10.45;;;9.27;;
81056;SDS011;70563;50.084;14.468;2023-08-20T04:19:00;10.00;;;9.00;;
81056;SDS011;70563;50.084;14.468;2023-08-20T04:21:26;12.68;;;10.63;;
81056;SDS011;70563;50.084;14.468;2023-08-20T04:23:51;12.18;;;9.80;;
81056;SDS011;70563;50.084;14.468;2023-08-20T04:26:17;11.35;;;9.25;;
81056;SDS011;70563;50.084;14.468;2023-08-20T04:28:42;9.75;;;8.73;;
81056;SDS011;70563;50.084;14.468;2023-08-20T04:31:07;11.40;;;9.50;;
81056;SDS011;70563;50.084;14.468;2023-08-20T04:33:32;14.35;;;10.50;;
81056;SDS011;70563;50.084;14.468;2023-08-20T04:35:58;12.88;;;10.32;;
81056;SDS011;70563;50.084;14.468;2023-08-20T04:38:23;11.50;;;10.18;;
81056;SDS011;70563;50.084;14.468;2023-08-20T04:40:50;11.77;;;9.65;;
81056;SDS011;70563;50.084;14.468;2023-08-20T04:43:15;10.82;;;9.73;;
81056;SDS011;70563;50.084;14.468;2023-08-20T04:45:41;11.38;;;9.60;;
81056;SDS011;70563;50.084;14.468;2023-08-20T04:48:07;10.45;;;9.05;;
81056;SDS011;70563;50.084;14.468;2023-08-20T04:50:32;12.93;;;10.05;;
81056;SDS011;70563;50.084;14.468;2023-08-20T04:52:58;11.73;;;10.27;;
81056;SDS011;70563;50.084;14.468;2023-08-20T04:55:27;12.82;;;9.63;;
81056;SDS011;70563;50.084;14.468;2023-08-20T04:57:53;11.48;;;9.73;;
81056;SDS011;70563;50.084;14.468;2023-08-20T05:00:18;13.48;;;10.40;;
81056;SDS011;70563;50.084;14.468;2023-08-20T05:02:43;12.48;;;10.25;;
81056;SDS011;70563;50.084;14.468;2023-08-20T05:05:10;13.68;;;9.60;;
81056;SDS011;70563;50.084;14.468;2023-08-20T05:07:35;11.95;;;10.00;;
81056;SDS011;70563;50.084;14.468;2023-08-20T05:10:01;12.48;;;9.07;;
81056;SDS011;70563;50.084;14.468;2023-08-20T05:12:27;12.38;;;10.60;;
81056;SDS011;70563;50.084;14.468;2023-08-20T05:14:52;12.18;;;9.90;;
81056;SDS011;70563;50.084;14.468;2023-08-20T05:17:18;12.35;;;9.80;;
81056;SDS011;70563;50.084;14.468;2023-08-20T05:19:43;14.07;;;9.77;;
81056;SDS011;70563;50.084;14.468;2023-08-20T05:22:08;11.55;;;9.32;;
81056;SDS011;70563;50.084;14.468;2023-08-20T05:24:35;13.95;;;9.02;;
81056;SDS011;70563;50.084;14.468;2023-08-20T05:27:05;11.23;;;10.02;;
81056;SDS011;70563;50.084;14.468;2023-08-20T05:29:31;9.70;;;8.65;;
81056;SDS011;70563;50.084;14.468;2023-08-20T05:31:56;11.88;;;9.20;;
81056;SDS011;70563;50.084;14.468;2023-08-20T05:34:21;9.95;;;8.57;;
81056;SDS011;70563;50.084;14.468;2023-08-20T05:36:47;11.00;;;8.73;;
81056;SDS011;70563;50.084;14.468;2023-08-20T05:39:12;12.23;;;9.18;;
81056;SDS011;70563;50.084;14.468;2023-08-20T05:41:37;10.43;;;9.38;;
81056;SDS011;70563;50.084;14.468;2023-08-20T05:44:03;11.27;;;9.77;;
81056;SDS011;70563;50.084;14.468;2023-08-20T05:46:29;12.98;;;8.57;;
81056;SDS011;70563;50.084;14.468;2023-08-20T05:48:54;11.10;;;9.20;;
81056;SDS011;70563;50.084;14.468;2023-08-20T05:51:19;11.15;;;9.20;;
81056;SDS011;70563;50.084;14.468;2023-08-20T05:53:45;9.45;;;8.52;;
81056;SDS011;70563;50.084;14.468;2023-08-20T05:56:10;10.25;;;8.93;;
81056;SDS011;70563;50.084;14.468;2023-08-20T05:58:35;13.68;;;9.90;;
81056;SDS011;70563;50.084;14.468;2023-08-20T06:01:01;9.95;;;8.52;;
81056;SDS011;70563;50.084;14.468;2023-08-20T06:03:26;10.27;;;8.90;;
81056;SDS011;70563;50.084;14.468;2023-08-20T06:05:51;11.10;;;9.13;;
81056;SDS011;70563;50.084;14.468;2023-08-20T06:08:17;12.23;;;9.75;;
81056;SDS011;70563;50.084;14.468;2023-08-20T06:10:42;11.13;;;8.70;;
81056;SDS011;70563;50.084;14.468;2023-08-20T06:13:08;10.18;;;9.18;;
81056;SDS011;70563;50.084;14.468;2023-08-20T06:15:34;10.23;;;8.80;;
81056;SDS011;70563;50.084;14.468;2023-08-20T06:17:59;11.40;;;8.52;;
81056;SDS011;70563;50.084;14.468;2023-08-20T06:20:25;11.40;;;8.57;;
81056;SDS011;70563;50.084;14.468;2023-08-20T06:22:50;11.32;;;9.13;;
81056;SDS011;70563;50.084;14.468;2023-08-20T06:25:15;11.15;;;8.32;;
81056;SDS011;70563;50.084;14.468;2023-08-20T06:27:41;10.93;;;8.98;;
81056;SDS011;70563;50.084;14.468;2023-08-20T06:30:06;11.82;;;9.05;;
81056;SDS011;70563;50.084;14.468;2023-08-20T06:32:32;11.68;;;8.15;;
81056;SDS011;70563;50.084;14.468;2023-08-20T06:34:59;18.45;;;12.70;;
81056;SDS011;70563;50.084;14.468;2023-08-20T06:37:24;10.73;;;8.57;;
81056;SDS011;70563;50.084;14.468;2023-08-20T06:39:50;12.00;;;9.25;;
81056;SDS011;70563;50.084;14.468;2023-08-20T06:42:15;10.38;;;9.27;;
81056;SDS011;70563;50.084;14.468;2023-08-20T06:44:40;10.25;;;9.13;;
81056;SDS011;70563;50.084;14.468;2023-08-20T06:47:06;31.90;;;14.35;;
81056;SDS011;70563;50.084;14.468;2023-08-20T06:49:31;10.57;;;8.80;;
81056;SDS011;70563;50.084;14.468;2023-08-20T06:51:57;11.50;;;9.07;;
81056;SDS011;70563;50.084;14.468;2023-08-20T06:54:22;11.27;;;9.25;;
81056;SDS011;70563;50.084;14.468;2023-08-20T06:56:47;11.02;;;9.35;;
81056;SDS011;70563;50.084;14.468;2023-08-20T06:59:13;9.93;;;8.38;;
81056;SDS011;70563;50.084;14.468;2023-08-20T07:01:38;11.38;;;8.98;;
81056;SDS011;70563;50.084;14.468;2023-08-20T07:04:04;12.57;;;9.18;;
81056;SDS011;70563;50.084;14.468;2023-08-20T07:06:29;21.60;;;12.20;;
81056;SDS011;70563;50.084;14.468;2023-08-20T07:08:55;11.13;;;9.15;;
81056;SDS011;70563;50.084;14.468;2023-08-20T07:11:20;12.55;;;10.73;;
81056;SDS011;70563;50.084;14.468;2023-08-20T07:13:46;9.45;;;8.43;;
81056;SDS011;70563;50.084;14.468;2023-08-20T07:16:11;13.50;;;10.23;;
81056;SDS011;70563;50.084;14.468;2023-08-20T07:18:37;11.50;;;9.02;;
81056;SDS011;70563;50.084;14.468;2023-08-20T07:21:02;13.68;;;10.60;;
81056;SDS011;70563;50.084;14.468;2023-08-20T07:23:28;12.32;;;8.82;;
81056;SDS011;70563;50.084;14.468;2023-08-20T07:26:03;11.82;;;9.85;;
81056;SDS011;70563;50.084;14.468;2023-08-20T07:28:33;10.27;;;9.18;;
81056;SDS011;70563;50.084;14.468;2023-08-20T07:31:17;10.35;;;7.93;;
81056;SDS011;70563;50.084;14.468;2023-08-20T07:33:45;12.07;;;9.38;;
81056;SDS011;70563;50.084;14.468;2023-08-20T07:36:14;12.85;;;10.35;;
81056;SDS011;70563;50.084;14.468;2023-08-20T07:38:40;11.35;;;9.93;;
81056;SDS011;70563;50.084;14.468;2023-08-20T07:41:10;14.95;;;9.85;;
81056;SDS011;70563;50.084;14.468;2023-08-20T07:43:37;11.93;;;10.20;;
81056;SDS011;70563;50.084;14.468;2023-08-20T07:46:03;11.73;;;10.35;;
81056;SDS011;70563;50.084;14.468;2023-08-20T07:48:29;11.38;;;10.18;;
81056;SDS011;70563;50.084;14.468;2023-08-20T07:50:55;12.18;;;10.45;;
81056;SDS011;70563;50.084;14.468;2023-08-20T07:53:20;13.60;;;11.10;;
81056;SDS011;70563;50.084;14.468;2023-08-20T07:55:46;16.58;;;11.38;;
81056;SDS011;70563;50.084;14.468;2023-08-20T07:58:11;14.43;;;11.07;;
81056;SDS011;70563;50.084;14.468;2023-08-20T08:00:36;13.32;;;10.75;;
81056;SDS011;70563;50.084;14.468;2023-08-20T08:03:02;14.90;;;11.70;;
81056;SDS011;70563;50.084;14.468;2023-08-20T08:05:28;13.10;;;11.63;;
81056;SDS011;70563;50.084;14.468;2023-08-20T08:07:53;15.90;;;11.63;;
81056;SDS011;70563;50.084;14.468;2023-08-20T08:10:18;12.75;;;10.80;;
81056;SDS011;70563;50.084;14.468;2023-08-20T08:12:44;15.35;;;11.30;;
81056;SDS011;70563;50.084;14.468;2023-08-20T08:15:09;14.80;;;10.93;;
81056;SDS011;70563;50.084;14.468;2023-08-20T08:17:35;12.07;;;10.68;;
81056;SDS011;70563;50.084;14.468;2023-08-20T08:20:00;14.30;;;12.10;;
81056;SDS011;70563;50.084;14.468;2023-08-20T08:22:25;13.10;;;11.10;;
81056;SDS011;70563;50.084;14.468;2023-08-20T08:24:51;13.95;;;11.82;;
81056;SDS011;70563;50.084;14.468;2023-08-20T08:27:16;20.10;;;15.75;;
81056;SDS011;70563;50.084;14.468;2023-08-20T08:29:41;18.15;;;12.95;;
81056;SDS011;70563;50.084;14.468;2023-08-20T08:32:07;16.40;;;11.60;;
81056;SDS011;70563;50.084;14.468;2023-08-20T08:34:32;14.65;;;13.10;;
81056;SDS011;70563;50.084;14.468;2023-08-20T08:36:57;14.23;;;11.10;;
81056;SDS011;70563;50.084;14.468;2023-08-20T08:39:23;14.77;;;11.30;;
81056;SDS011;70563;50.084;14.468;2023-08-20T08:41:49;13.30;;;11.48;;
81056;SDS011;70563;50.084;14.468;2023-08-20T08:44:16;12.02;;;10.63;;
81056;SDS011;70563;50.084;14.468;2023-08-20T08:46:41;11.98;;;10.75;;
81056;SDS011;70563;50.084;14.468;2023-08-20T08:49:07;11.52;;;10.30;;
81056;SDS011;70563;50.084;14.468;2023-08-20T08:51:33;13.18;;;11.52;;
81056;SDS011;70563;50.084;14.468;2023-08-20T08:54:01;14.35;;;11.02;;
81056;SDS011;70563;50.084;14.468;2023-08-20T08:56:27;12.55;;;11.32;;
81056;SDS011;70563;50.084;14.468;2023-08-20T08:58:52;11.13;;;10.00;;
81056;SDS011;70563;50.084;14.468;2023-08-20T09:01:19;12.95;;;11.65;;
81056;SDS011;70563;50.084;14.468;2023-08-20T09:03:45;18.35;;;12.35;;
81056;SDS011;70563;50.084;14.468;2023-08-20T09:06:12;13.95;;;11.45;;
81056;SDS011;70563;50.084;14.468;2023-08-20T09:08:37;15.18;;;11.90;;
81056;SDS011;70563;50.084;14.468;2023-08-20T09:11:03;14.07;;;11.90;;
81056;SDS011;70563;50.084;14.468;2023-08-20T09:13:41;12.35;;;11.15;;
81056;SDS011;70563;50.084;14.468;2023-08-20T09:16:11;12.07;;;10.52;;
81056;SDS011;70563;50.084;14.468;2023-08-20T09:18:41;15.63;;;12.82;;
81056;SDS011;70563;50.084;14.468;2023-08-20T09:21:10;13.15;;;11.15;;
81056;SDS011;70563;50.084;14.468;2023-08-20T09:23:36;12.73;;;11.50;;
81056;SDS011;70563;50.084;14.468;2023-08-20T09:26:03;12.05;;;10.85;;
81056;SDS011;70563;50.084;14.468;2023-08-20T09:28:43;12.90;;;11.60;;
81056;SDS011;70563;50.084;14.468;2023-08-20T09:31:10;12.75;;;10.93;;
81056;SDS011;70563;50.084;14.468;2023-08-20T09:33:36;14.07;;;11.48;;
81056;SDS011;70563;50.084;14.468;2023-08-20T09:36:04;12.93;;;10.55;;
81056;SDS011;70563;50.084;14.468;2023-08-20T09:38:36;15.63;;;11.70;;
81056;SDS011;70563;50.084;14.468;2023-08-20T09:41:03;12.05;;;10.82;;
81056;SDS011;70563;50.084;14.468;2023-08-20T09:43:30;11.70;;;10.50;;
81056;SDS011;70563;50.084;14.468;2023-08-20T09:45:58;12.40;;;10.93;;
81056;SDS011;70563;50.084;14.468;2023-08-20T09:48:26;11.40;;;10.20;;
81056;SDS011;70563;50.084;14.468;2023-08-20T09:50:54;12.80;;;11.30;;
81056;SDS011;70563;50.084;14.468;2023-08-20T09:53:27;10.95;;;9.88;;
81056;SDS011;70563;50.084;14.468;2023-08-20T09:56:02;13.00;;;10.60;;
81056;SDS011;70563;50.084;14.468;2023-08-20T10:01:00;11.20;;;10.30;;
81056;SDS011;70563;50.084;14.468;2023-08-20T10:03:26;11.18;;;10.15;;
81056;SDS011;70563;50.084;14.468;2023-08-20T10:05:51;13.35;;;11.20;;
81056;SDS011;70563;50.084;14.468;2023-08-20T10:08:18;10.32;;;9.38;;
81056;SDS011;70563;50.084;14.468;2023-08-20T10:10:44;14.00;;;8.65;;
81056;SDS011;70563;50.084;14.468;2023-08-20T10:13:09;8.82;;;8.02;;
81056;SDS011;70563;50.084;14.468;2023-08-20T10:15:35;9.20;;;8.30;;
81056;SDS011;70563;50.084;14.468;2023-08-20T10:18:02;8.77;;;7.82;;
81056;SDS011;70563;50.084;14.468;2023-08-20T10:20:29;8.40;;;7.65;;
81056;SDS011;70563;50.084;14.468;2023-08-20T10:23:02;8.13;;;7.32;;
81056;SDS011;70563;50.084;14.468;2023-08-20T10:25:29;8.00;;;7.10;;
81056;SDS011;70563;50.084;14.468;2023-08-20T10:28:10;7.60;;;7.00;;
81056;SDS011;70563;50.084;14.468;2023-08-20T10:31:05;8.48;;;7.68;;
81056;SDS011;70563;50.084;14.468;2023-08-20T10:33:38;8.15;;;7.30;;
81056;SDS011;70563;50.084;14.468;2023-08-20T10:36:15;7.03;;;6.28;;
81056;SDS011;70563;50.084;14.468;2023-08-20T10:38:51;7.45;;;6.38;;
81056;SDS011;70563;50.084;14.468;2023-08-20T10:41:24;7.05;;;6.35;;
81056;SDS011;70563;50.084;14.468;2023-08-20T10:43:53;7.75;;;6.43;;
81056;SDS011;70563;50.084;14.468;2023-08-20T10:46:23;7.38;;;6.63;;
81056;SDS011;70563;50.084;14.468;2023-08-20T10:48:53;10.50;;;6.28;;
81056;SDS011;70563;50.084;14.468;2023-08-20T10:51:29;7.63;;;6.90;;
81056;SDS011;70563;50.084;14.468;2023-08-20T10:59:22;7.60;;;6.78;;
81056;SDS011;70563;50.084;14.468;2023-08-20T11:01:51;6.78;;;6.28;;
81056;SDS011;70563;50.084;14.468;2023-08-20T11:04:18;10.65;;;6.53;;
81056;SDS011;70563;50.084;14.468;2023-08-20T11:06:45;7.22;;;6.22;;
81056;SDS011;70563;50.084;14.468;2023-08-20T11:09:11;7.30;;;5.75;;
81056;SDS011;70563;50.084;14.468;2023-08-20T11:11:38;5.95;;;5.35;;
81056;SDS011;70563;50.084;14.468;2023-08-20T11:14:08;6.30;;;5.70;;
81056;SDS011;70563;50.084;14.468;2023-08-20T11:16:41;6.60;;;5.60;;
81056;SDS011;70563;50.084;14.468;2023-08-20T11:19:10;6.47;;;5.80;;
81056;SDS011;70563;50.084;14.468;2023-08-20T11:21:42;8.43;;;5.57;;
81056;SDS011;70563;50.084;14.468;2023-08-20T11:24:09;7.10;;;5.53;;
81056;SDS011;70563;50.084;14.468;2023-08-20T11:26:35;6.68;;;6.05;;
81056;SDS011;70563;50.084;14.468;2023-08-20T11:29:07;7.13;;;6.47;;
81056;SDS011;70563;50.084;14.468;2023-08-20T11:31:40;6.53;;;5.93;;
81056;SDS011;70563;50.084;14.468;2023-08-20T11:34:06;7.43;;;5.80;;
81056;SDS011;70563;50.084;14.468;2023-08-20T11:36:32;6.10;;;5.18;;
81056;SDS011;70563;50.084;14.468;2023-08-20T11:38:58;6.72;;;5.95;;
81056;SDS011;70563;50.084;14.468;2023-08-20T11:41:24;6.82;;;6.18;;
81056;SDS011;70563;50.084;14.468;2023-08-20T11:43:50;6.60;;;5.90;;
81056;SDS011;70563;50.084;14.468;2023-08-20T11:46:18;6.57;;;5.97;;
81056;SDS011;70563;50.084;14.468;2023-08-20T11:48:58;7.00;;;6.30;;
81056;SDS011;70563;50.084;14.468;2023-08-20T11:54:28;6.85;;;6.25;;
81056;SDS011;70563;50.084;14.468;2023-08-20T11:57:01;6.50;;;5.90;;
81056;SDS011;70563;50.084;14.468;2023-08-20T11:59:28;7.15;;;6.00;;
81056;SDS011;70563;50.084;14.468;2023-08-20T12:01:57;7.47;;;5.85;;
81056;SDS011;70563;50.084;14.468;2023-08-20T12:04:25;6.82;;;6.10;;
81056;SDS011;70563;50.084;14.468;2023-08-20T12:09:32;7.18;;;6.00;;
81056;SDS011;70563;50.084;14.468;2023-08-20T12:11:58;7.25;;;5.55;;
81056;SDS011;70563;50.084;14.468;2023-08-20T12:14:24;6.10;;;5.50;;
81056;SDS011;70563;50.084;14.468;2023-08-20T12:16:50;5.72;;;5.18;;
81056;SDS011;70563;50.084;14.468;2023-08-20T12:19:18;6.65;;;6.03;;
81056;SDS011;70563;50.084;14.468;2023-08-20T12:21:43;6.25;;;5.68;;
81056;SDS011;70563;50.084;14.468;2023-08-20T12:24:09;6.50;;;5.60;;
81056;SDS011;70563;50.084;14.468;2023-08-20T12:26:36;8.77;;;5.18;;
81056;SDS011;70563;50.084;14.468;2023-08-20T12:29:01;6.57;;;5.63;;
81056;SDS011;70563;50.084;14.468;2023-08-20T12:31:27;6.20;;;5.20;;
81056;SDS011;70563;50.084;14.468;2023-08-20T12:33:52;6.43;;;5.82;;
81056;SDS011;70563;50.084;14.468;2023-08-20T12:36:18;7.45;;;6.28;;
81056;SDS011;70563;50.084;14.468;2023-08-20T12:38:43;6.20;;;5.60;;
81056;SDS011;70563;50.084;14.468;2023-08-20T12:41:09;6.18;;;5.65;;
81056;SDS011;70563;50.084;14.468;2023-08-20T12:43:37;8.02;;;5.88;;
81056;SDS011;70563;50.084;14.468;2023-08-20T12:46:02;6.65;;;6.00;;
81056;SDS011;70563;50.084;14.468;2023-08-20T12:48:28;5.90;;;5.20;;
81056;SDS011;70563;50.084;14.468;2023-08-20T12:50:54;7.28;;;5.57;;
81056;SDS011;70563;50.084;14.468;2023-08-20T12:53:19;6.00;;;4.53;;
81056;SDS011;70563;50.084;14.468;2023-08-20T12:55:46;6.00;;;5.25;;
81056;SDS011;70563;50.084;14.468;2023-08-20T12:58:11;7.22;;;5.53;;
81056;SDS011;70563;50.084;14.468;2023-08-20T13:00:37;5.88;;;5.38;;
81056;SDS011;70563;50.084;14.468;2023-08-20T13:03:03;5.78;;;5.07;;
81056;SDS011;70563;50.084;14.468;2023-08-20T13:05:28;5.35;;;4.55;;
81056;SDS011;70563;50.084;14.468;2023-08-20T13:07:54;6.00;;;4.50;;
81056;SDS011;70563;50.084;14.468;2023-08-20T13:10:20;5.07;;;4.60;;
81056;SDS011;70563;50.084;14.468;2023-08-20T13:12:51;5.57;;;4.82;;
81056;SDS011;70563;50.084;14.468;2023-08-20T13:15:19;6.05;;;4.80;;
81056;SDS011;70563;50.084;14.468;2023-08-20T13:17:46;6.57;;;4.70;;
81056;SDS011;70563;50.084;14.468;2023-08-20T13:20:13;5.60;;;4.22;;
81056;SDS011;70563;50.084;14.468;2023-08-20T13:22:39;6.10;;;4.75;;
81056;SDS011;70563;50.084;14.468;2023-08-20T13:25:05;7.28;;;4.65;;
81056;SDS011;70563;50.084;14.468;2023-08-20T13:27:30;5.45;;;4.95;;
81056;SDS011;70563;50.084;14.468;2023-08-20T13:29:56;4.80;;;4.40;;
81056;SDS011;70563;50.084;14.468;2023-08-20T13:32:21;6.32;;;3.90;;
81056;SDS011;70563;50.084;14.468;2023-08-20T13:34:47;5.57;;;4.03;;
81056;SDS011;70563;50.084;14.468;2023-08-20T13:37:12;9.20;;;4.18;;
81056;SDS011;70563;50.084;14.468;2023-08-20T13:39:37;5.22;;;4.72;;
81056;SDS011;70563;50.084;14.468;2023-08-20T13:42:03;6.65;;;4.60;;
81056;SDS011;70563;50.084;14.468;2023-08-20T13:44:28;5.88;;;5.38;;
81056;SDS011;70563;50.084;14.468;2023-08-20T13:46:54;7.75;;;5.38;;
81056;SDS011;70563;50.084;14.468;2023-08-20T13:49:20;5.90;;;4.75;;
81056;SDS011;70563;50.084;14.468;2023-08-20T13:51:45;6.00;;;5.40;;
81056;SDS011;70563;50.084;14.468;2023-08-20T13:54:10;5.93;;;5.20;;
81056;SDS011;70563;50.084;14.468;2023-08-20T13:56:36;5.28;;;4.70;;
81056;SDS011;70563;50.084;14.468;2023-08-20T13:59:01;7.05;;;5.22;;
81056;SDS011;70563;50.084;14.468;2023-08-20T14:01:27;5.88;;;5.30;;
81056;SDS011;70563;50.084;14.468;2023-08-20T14:03:52;6.22;;;4.85;;
81056;SDS011;70563;50.084;14.468;2023-08-20T14:06:18;7.70;;;5.25;;
81056;SDS011;70563;50.084;14.468;2023-08-20T14:08:44;6.25;;;5.55;;
81056;SDS011;70563;50.084;14.468;2023-08-20T14:11:09;5.70;;;5.18;;
81056;SDS011;70563;50.084;14.468;2023-08-20T14:13:35;6.68;;;5.10;;
81056;SDS011;70563;50.084;14.468;2023-08-20T14:16:00;9.18;;;5.78;;
81056;SDS011;70563;50.084;14.468;2023-08-20T14:18:26;7.18;;;5.25;;
81056;SDS011;70563;50.084;14.468;2023-08-20T14:20:51;8.63;;;5.32;;
81056;SDS011;70563;50.084;14.468;2023-08-20T14:23:17;6.13;;;5.35;;
81056;SDS011;70563;50.084;14.468;2023-08-20T14:25:42;7.65;;;5.38;;
81056;SDS011;70563;50.084;14.468;2023-08-20T14:28:08;5.78;;;5.13;;
81056;SDS011;70563;50.084;14.468;2023-08-20T14:30:39;7.75;;;5.28;;
81056;SDS011;70563;50.084;14.468;2023-08-20T14:33:05;6.95;;;5.55;;
81056;SDS011;70563;50.084;14.468;2023-08-20T14:35:31;7.78;;;5.72;;
81056;SDS011;70563;50.084;14.468;2023-08-20T14:37:57;6.22;;;5.47;;